sensor_id;sensor_type;location;lat;lon;timestamp;temperature;humidity
19496;DHT22;9888;48.606;9.630;2022-10-22T00:01:05;11.70;99.90
19496;DHT22;9888;48.606;9.630;2022-10-22T00:03:32;11.70;99.90
19496;DHT22;9888;48.606;9.630;2022-10-22T00:06:06;11.60;99.90
19496;DHT22;9888;48.606;9.630;2022-10-22T00:08:45;11.60;99.90
19496;DHT22;9888;48.606;9.630;2022-10-22T00:11:16;11.50;99.90
19496;DHT22;9888;48.606;9.630;2022-10-22T00:13:44;11.50;99.90
19496;DHT22;9888;48.606;9.630;2022-10-22T00:16:13;11.50;99.90
19496;DHT22;9888;48.606;9.630;2022-10-22T00:18:42;11.50;99.90
19496;DHT22;9888;48.606;9.630;2022-10-22T00:21:10;11.50;99.90
19496;DHT22;9888;48.606;9.630;2022-10-22T00:23:42;11.50;99.90
19496;DHT22;9888;48.606;9.630;2022-10-22T00:26:12;11.50;99.90
19496;DHT22;9888;48.606;9.630;2022-10-22T00:28:43;11.40;99.90
19496;DHT22;9888;48.606;9.630;2022-10-22T00:31:12;11.40;99.90
19496;DHT22;9888;48.606;9.630;2022-10-22T00:33:41;11.40;99.90
19496;DHT22;9888;48.606;9.630;2022-10-22T00:36:09;11.40;99.90
19496;DHT22;9888;48.606;9.630;2022-10-22T00:38:39;11.40;99.90
19496;DHT22;9888;48.606;9.630;2022-10-22T00:41:30;11.40;99.90
19496;DHT22;9888;48.606;9.630;2022-10-22T00:44:05;11.40;99.90
19496;DHT22;9888;48.606;9.630;2022-10-22T00:46:32;11.40;99.90
19496;DHT22;9888;48.606;9.630;2022-10-22T00:49:02;11.30;99.90
19496;DHT22;9888;48.606;9.630;2022-10-22T00:51:32;11.30;99.90
19496;DHT22;9888;48.606;9.630;2022-10-22T00:54:03;11.30;99.90
19496;DHT22;9888;48.606;9.630;2022-10-22T00:56:32;11.20;99.90
19496;DHT22;9888;48.606;9.630;2022-10-22T00:59:01;11.20;99.90
19496;DHT22;9888;48.606;9.630;2022-10-22T01:01:30;11.20;99.90
19496;DHT22;9888;48.606;9.630;2022-10-22T01:03:57;11.20;99.90
19496;DHT22;9888;48.606;9.630;2022-10-22T01:06:31;11.20;99.90
19496;DHT22;9888;48.606;9.630;2022-10-22T01:15:28;11.20;99.90
19496;DHT22;9888;48.606;9.630;2022-10-22T01:18:18;11.20;99.90
19496;DHT22;9888;48.606;9.630;2022-10-22T01:21:30;11.10;99.90
19496;DHT22;9888;48.606;9.630;2022-10-22T01:29:50;11.30;99.90
19496;DHT22;9888;48.606;9.630;2022-10-22T01:32:22;11.30;99.90
19496;DHT22;9888;48.606;9.630;2022-10-22T01:35:02;11.20;99.90
19496;DHT22;9888;48.606;9.630;2022-10-22T01:37:35;11.20;99.90
19496;DHT22;9888;48.606;9.630;2022-10-22T01:40:05;11.10;99.90
19496;DHT22;9888;48.606;9.630;2022-10-22T01:42:33;11.10;99.90
19496;DHT22;9888;48.606;9.630;2022-10-22T01:45:00;11.10;99.90
19496;DHT22;9888;48.606;9.630;2022-10-22T01:48:05;11.20;99.90
19496;DHT22;9888;48.606;9.630;2022-10-22T01:58:57;11.10;99.90
19496;DHT22;9888;48.606;9.630;2022-10-22T02:01:59;11.00;99.90
19496;DHT22;9888;48.606;9.630;2022-10-22T02:04:34;11.00;99.90
19496;DHT22;9888;48.606;9.630;2022-10-22T02:07:08;11.00;99.90
19496;DHT22;9888;48.606;9.630;2022-10-22T02:09:39;11.00;99.90
19496;DHT22;9888;48.606;9.630;2022-10-22T02:12:10;10.90;99.90
19496;DHT22;9888;48.606;9.630;2022-10-22T02:14:42;11.00;99.90
19496;DHT22;9888;48.606;9.630;2022-10-22T02:17:15;11.00;99.90
19496;DHT22;9888;48.606;9.630;2022-10-22T02:19:55;10.90;99.90
19496;DHT22;9888;48.606;9.630;2022-10-22T02:22:23;10.90;99.90
19496;DHT22;9888;48.606;9.630;2022-10-22T02:24:52;10.80;99.90
19496;DHT22;9888;48.606;9.630;2022-10-22T02:27:31;10.70;99.90
19496;DHT22;9888;48.606;9.630;2022-10-22T02:30:13;10.80;99.90
19496;DHT22;9888;48.606;9.630;2022-10-22T02:32:55;10.70;99.90
19496;DHT22;9888;48.606;9.630;2022-10-22T02:35:27;10.60;99.90
19496;DHT22;9888;48.606;9.630;2022-10-22T02:37:56;10.60;99.90
19496;DHT22;9888;48.606;9.630;2022-10-22T02:40:25;10.50;99.90
19496;DHT22;9888;48.606;9.630;2022-10-22T02:42:56;10.50;99.90
19496;DHT22;9888;48.606;9.630;2022-10-22T02:45:23;10.50;99.90
19496;DHT22;9888;48.606;9.630;2022-10-22T02:47:50;10.50;99.90
19496;DHT22;9888;48.606;9.630;2022-10-22T02:50:17;10.50;99.90
19496;DHT22;9888;48.606;9.630;2022-10-22T02:52:45;10.50;99.90
19496;DHT22;9888;48.606;9.630;2022-10-22T02:55:14;10.60;99.90
19496;DHT22;9888;48.606;9.630;2022-10-22T02:57:42;10.60;99.90
19496;DHT22;9888;48.606;9.630;2022-10-22T03:00:13;10.60;99.90
19496;DHT22;9888;48.606;9.630;2022-10-22T03:02:41;10.60;99.90
19496;DHT22;9888;48.606;9.630;2022-10-22T03:05:09;10.60;99.90
19496;DHT22;9888;48.606;9.630;2022-10-22T03:07:37;10.50;99.90
19496;DHT22;9888;48.606;9.630;2022-10-22T03:10:14;10.40;99.90
19496;DHT22;9888;48.606;9.630;2022-10-22T03:12:41;10.50;99.90
19496;DHT22;9888;48.606;9.630;2022-10-22T03:18:14;10.50;99.90
19496;DHT22;9888;48.606;9.630;2022-10-22T03:20:41;10.50;99.90
19496;DHT22;9888;48.606;9.630;2022-10-22T03:26:18;10.50;99.90
19496;DHT22;9888;48.606;9.630;2022-10-22T03:28:46;10.40;99.90
19496;DHT22;9888;48.606;9.630;2022-10-22T03:31:35;10.50;99.90
19496;DHT22;9888;48.606;9.630;2022-10-22T03:34:03;10.50;99.90
19496;DHT22;9888;48.606;9.630;2022-10-22T03:36:33;10.40;99.90
19496;DHT22;9888;48.606;9.630;2022-10-22T03:39:28;10.50;99.90
19496;DHT22;9888;48.606;9.630;2022-10-22T03:42:14;10.50;99.90
19496;DHT22;9888;48.606;9.630;2022-10-22T03:44:50;10.50;99.90
19496;DHT22;9888;48.606;9.630;2022-10-22T03:47:21;10.50;99.90
19496;DHT22;9888;48.606;9.630;2022-10-22T03:50:04;10.50;99.90
19496;DHT22;9888;48.606;9.630;2022-10-22T03:52:36;10.50;99.90
19496;DHT22;9888;48.606;9.630;2022-10-22T03:55:14;10.50;99.90
19496;DHT22;9888;48.606;9.630;2022-10-22T03:57:42;10.60;99.90
19496;DHT22;9888;48.606;9.630;2022-10-22T04:00:12;10.60;99.90
19496;DHT22;9888;48.606;9.630;2022-10-22T04:02:41;10.60;99.90
19496;DHT22;9888;48.606;9.630;2022-10-22T04:05:08;10.60;99.90
19496;DHT22;9888;48.606;9.630;2022-10-22T04:07:36;10.70;99.90
19496;DHT22;9888;48.606;9.630;2022-10-22T04:10:08;10.80;99.90
19496;DHT22;9888;48.606;9.630;2022-10-22T04:12:36;10.80;99.90
19496;DHT22;9888;48.606;9.630;2022-10-22T04:15:03;10.80;99.90
19496;DHT22;9888;48.606;9.630;2022-10-22T04:17:34;10.90;99.90
19496;DHT22;9888;48.606;9.630;2022-10-22T04:20:03;10.80;99.90
19496;DHT22;9888;48.606;9.630;2022-10-22T04:22:33;10.80;99.90
19496;DHT22;9888;48.606;9.630;2022-10-22T04:25:03;10.80;99.90
19496;DHT22;9888;48.606;9.630;2022-10-22T04:27:33;10.70;99.90
19496;DHT22;9888;48.606;9.630;2022-10-22T04:30:03;10.70;99.90
19496;DHT22;9888;48.606;9.630;2022-10-22T04:32:30;10.70;99.90
19496;DHT22;9888;48.606;9.630;2022-10-22T04:34:58;10.60;99.90
19496;DHT22;9888;48.606;9.630;2022-10-22T04:37:25;10.60;99.90
19496;DHT22;9888;48.606;9.630;2022-10-22T04:39:54;10.60;99.90
19496;DHT22;9888;48.606;9.630;2022-10-22T04:42:21;10.60;99.90
19496;DHT22;9888;48.606;9.630;2022-10-22T04:44:49;10.60;99.90
19496;DHT22;9888;48.606;9.630;2022-10-22T04:47:19;10.60;99.90
19496;DHT22;9888;48.606;9.630;2022-10-22T04:49:47;10.60;99.90
19496;DHT22;9888;48.606;9.630;2022-10-22T04:52:13;10.60;99.90
19496;DHT22;9888;48.606;9.630;2022-10-22T04:54:40;10.60;99.90
19496;DHT22;9888;48.606;9.630;2022-10-22T04:57:07;10.60;99.90
19496;DHT22;9888;48.606;9.630;2022-10-22T04:59:34;10.70;99.90
19496;DHT22;9888;48.606;9.630;2022-10-22T05:02:00;10.70;99.90
19496;DHT22;9888;48.606;9.630;2022-10-22T05:04:28;10.60;99.90
19496;DHT22;9888;48.606;9.630;2022-10-22T05:06:55;10.60;99.90
19496;DHT22;9888;48.606;9.630;2022-10-22T05:09:24;10.60;99.90
19496;DHT22;9888;48.606;9.630;2022-10-22T05:11:55;10.60;99.90
19496;DHT22;9888;48.606;9.630;2022-10-22T05:14:27;10.50;99.90
19496;DHT22;9888;48.606;9.630;2022-10-22T05:16:54;10.50;99.90
19496;DHT22;9888;48.606;9.630;2022-10-22T05:19:26;10.50;99.90
19496;DHT22;9888;48.606;9.630;2022-10-22T05:21:57;10.40;99.90
19496;DHT22;9888;48.606;9.630;2022-10-22T05:24:25;10.40;99.90
19496;DHT22;9888;48.606;9.630;2022-10-22T05:26:53;10.40;99.90
19496;DHT22;9888;48.606;9.630;2022-10-22T05:29:29;10.40;99.90
19496;DHT22;9888;48.606;9.630;2022-10-22T05:31:58;10.40;99.90
19496;DHT22;9888;48.606;9.630;2022-10-22T05:34:26;10.40;99.90
19496;DHT22;9888;48.606;9.630;2022-10-22T05:36:54;10.30;99.90
19496;DHT22;9888;48.606;9.630;2022-10-22T05:39:21;10.30;99.90
19496;DHT22;9888;48.606;9.630;2022-10-22T05:41:51;10.30;99.90
19496;DHT22;9888;48.606;9.630;2022-10-22T05:44:19;10.30;99.90
19496;DHT22;9888;48.606;9.630;2022-10-22T05:46:46;10.30;99.90
19496;DHT22;9888;48.606;9.630;2022-10-22T05:49:15;10.30;99.90
19496;DHT22;9888;48.606;9.630;2022-10-22T05:51:44;10.30;99.90
19496;DHT22;9888;48.606;9.630;2022-10-22T05:54:22;10.40;99.90
19496;DHT22;9888;48.606;9.630;2022-10-22T05:56:49;10.50;99.90
19496;DHT22;9888;48.606;9.630;2022-10-22T05:59:15;10.50;99.90
19496;DHT22;9888;48.606;9.630;2022-10-22T06:01:42;10.60;99.90
19496;DHT22;9888;48.606;9.630;2022-10-22T06:04:11;10.70;99.90
19496;DHT22;9888;48.606;9.630;2022-10-22T06:06:46;10.80;99.90
19496;DHT22;9888;48.606;9.630;2022-10-22T06:09:22;11.00;99.90
19496;DHT22;9888;48.606;9.630;2022-10-22T06:11:51;11.10;99.90
19496;DHT22;9888;48.606;9.630;2022-10-22T06:14:19;11.10;99.90
19496;DHT22;9888;48.606;9.630;2022-10-22T06:16:47;11.10;99.90
19496;DHT22;9888;48.606;9.630;2022-10-22T06:22:36;11.10;99.90
19496;DHT22;9888;48.606;9.630;2022-10-22T06:25:04;11.10;99.90
19496;DHT22;9888;48.606;9.630;2022-10-22T06:27:32;11.00;99.90
19496;DHT22;9888;48.606;9.630;2022-10-22T06:30:00;11.00;99.90
19496;DHT22;9888;48.606;9.630;2022-10-22T06:32:30;11.00;99.90
19496;DHT22;9888;48.606;9.630;2022-10-22T06:35:11;11.00;99.90
19496;DHT22;9888;48.606;9.630;2022-10-22T06:38:03;11.00;99.90
19496;DHT22;9888;48.606;9.630;2022-10-22T06:40:36;11.10;99.90
19496;DHT22;9888;48.606;9.630;2022-10-22T06:43:07;11.10;99.90
19496;DHT22;9888;48.606;9.630;2022-10-22T06:45:34;11.10;99.90
19496;DHT22;9888;48.606;9.630;2022-10-22T06:48:01;11.10;99.90
19496;DHT22;9888;48.606;9.630;2022-10-22T06:50:30;11.20;99.90
19496;DHT22;9888;48.606;9.630;2022-10-22T06:52:57;11.20;99.90
19496;DHT22;9888;48.606;9.630;2022-10-22T06:55:25;11.30;99.90
19496;DHT22;9888;48.606;9.630;2022-10-22T06:57:53;11.30;99.90
19496;DHT22;9888;48.606;9.630;2022-10-22T07:00:20;11.40;99.90
19496;DHT22;9888;48.606;9.630;2022-10-22T07:03:19;11.50;99.90
19496;DHT22;9888;48.606;9.630;2022-10-22T07:05:51;11.60;99.90
19496;DHT22;9888;48.606;9.630;2022-10-22T07:08:45;11.80;99.90
19496;DHT22;9888;48.606;9.630;2022-10-22T07:11:41;12.00;99.90
19496;DHT22;9888;48.606;9.630;2022-10-22T07:14:10;12.10;99.90
19496;DHT22;9888;48.606;9.630;2022-10-22T07:16:38;12.30;99.90
19496;DHT22;9888;48.606;9.630;2022-10-22T07:19:08;12.30;99.90
19496;DHT22;9888;48.606;9.630;2022-10-22T07:21:36;12.40;99.90
19496;DHT22;9888;48.606;9.630;2022-10-22T07:24:05;12.50;99.90
19496;DHT22;9888;48.606;9.630;2022-10-22T07:26:34;12.50;99.90
19496;DHT22;9888;48.606;9.630;2022-10-22T07:29:05;12.50;99.90
19496;DHT22;9888;48.606;9.630;2022-10-22T07:31:32;12.60;99.90
19496;DHT22;9888;48.606;9.630;2022-10-22T07:33:59;12.70;99.90
19496;DHT22;9888;48.606;9.630;2022-10-22T07:36:28;12.80;99.90
19496;DHT22;9888;48.606;9.630;2022-10-22T07:38:57;13.00;99.90
19496;DHT22;9888;48.606;9.630;2022-10-22T07:41:25;13.10;99.90
19496;DHT22;9888;48.606;9.630;2022-10-22T07:43:54;13.20;99.90
19496;DHT22;9888;48.606;9.630;2022-10-22T07:46:22;13.30;99.90
19496;DHT22;9888;48.606;9.630;2022-10-22T07:48:50;13.60;99.90
19496;DHT22;9888;48.606;9.630;2022-10-22T07:51:18;13.70;99.90
19496;DHT22;9888;48.606;9.630;2022-10-22T07:53:47;13.90;99.90
19496;DHT22;9888;48.606;9.630;2022-10-22T07:56:14;14.00;99.90
19496;DHT22;9888;48.606;9.630;2022-10-22T07:58:41;14.10;99.90
19496;DHT22;9888;48.606;9.630;2022-10-22T08:01:11;14.10;99.90
19496;DHT22;9888;48.606;9.630;2022-10-22T08:03:38;14.30;99.90
19496;DHT22;9888;48.606;9.630;2022-10-22T08:06:06;14.40;99.90
19496;DHT22;9888;48.606;9.630;2022-10-22T08:08:34;14.50;99.90
19496;DHT22;9888;48.606;9.630;2022-10-22T08:11:01;15.10;99.90
19496;DHT22;9888;48.606;9.630;2022-10-22T08:13:29;14.90;99.90
19496;DHT22;9888;48.606;9.630;2022-10-22T08:15:57;14.60;99.90
19496;DHT22;9888;48.606;9.630;2022-10-22T08:18:28;14.50;99.90
19496;DHT22;9888;48.606;9.630;2022-10-22T08:20:55;14.70;99.90
19496;DHT22;9888;48.606;9.630;2022-10-22T08:23:22;14.70;99.90
19496;DHT22;9888;48.606;9.630;2022-10-22T08:25:49;14.90;99.90
19496;DHT22;9888;48.606;9.630;2022-10-22T08:28:17;15.10;99.90
19496;DHT22;9888;48.606;9.630;2022-10-22T08:30:44;15.00;99.90
19496;DHT22;9888;48.606;9.630;2022-10-22T08:33:14;15.20;99.90
19496;DHT22;9888;48.606;9.630;2022-10-22T08:35:41;15.50;99.90
19496;DHT22;9888;48.606;9.630;2022-10-22T08:38:08;15.30;99.90
19496;DHT22;9888;48.606;9.630;2022-10-22T08:40:38;15.20;99.90
19496;DHT22;9888;48.606;9.630;2022-10-22T08:46:51;15.60;99.90
19496;DHT22;9888;48.606;9.630;2022-10-22T08:52:45;22.10;99.90
19496;DHT22;9888;48.606;9.630;2022-10-22T08:55:21;24.00;99.90
19496;DHT22;9888;48.606;9.630;2022-10-22T09:00:57;26.40;99.90
19496;DHT22;9888;48.606;9.630;2022-10-22T09:06:22;26.90;99.90
19496;DHT22;9888;48.606;9.630;2022-10-22T09:08:52;26.50;99.90
19496;DHT22;9888;48.606;9.630;2022-10-22T09:11:31;27.40;99.90
19496;DHT22;9888;48.606;9.630;2022-10-22T09:13:59;27.40;99.90
19496;DHT22;9888;48.606;9.630;2022-10-22T09:19:40;28.20;99.90
19496;DHT22;9888;48.606;9.630;2022-10-22T09:22:23;26.70;99.90
19496;DHT22;9888;48.606;9.630;2022-10-22T09:25:10;24.70;99.90
19496;DHT22;9888;48.606;9.630;2022-10-22T09:27:40;24.30;99.90
19496;DHT22;9888;48.606;9.630;2022-10-22T09:30:19;23.20;99.90
19496;DHT22;9888;48.606;9.630;2022-10-22T09:33:33;26.40;99.90
19496;DHT22;9888;48.606;9.630;2022-10-22T09:35:51;27.70;99.90
19496;DHT22;9888;48.606;9.630;2022-10-22T09:38:27;28.80;99.90
19496;DHT22;9888;48.606;9.630;2022-10-22T09:41:00;29.30;99.90
19496;DHT22;9888;48.606;9.630;2022-10-22T09:43:30;28.30;99.90
19496;DHT22;9888;48.606;9.630;2022-10-22T09:46:05;24.40;99.90
19496;DHT22;9888;48.606;9.630;2022-10-22T09:48:43;22.50;99.90
19496;DHT22;9888;48.606;9.630;2022-10-22T09:54:13;21.80;99.90
19496;DHT22;9888;48.606;9.630;2022-10-22T09:57:02;23.40;99.90
19496;DHT22;9888;48.606;9.630;2022-10-22T09:59:32;23.50;99.90
19496;DHT22;9888;48.606;9.630;2022-10-22T10:02:18;22.80;99.90
19496;DHT22;9888;48.606;9.630;2022-10-22T10:05:02;22.60;99.90
19496;DHT22;9888;48.606;9.630;2022-10-22T10:10:47;22.50;99.90
19496;DHT22;9888;48.606;9.630;2022-10-22T10:13:57;21.90;99.90
19496;DHT22;9888;48.606;9.630;2022-10-22T10:19:18;23.20;99.90
19496;DHT22;9888;48.606;9.630;2022-10-22T10:27:42;25.20;99.90
19496;DHT22;9888;48.606;9.630;2022-10-22T10:30:14;22.30;99.90
19496;DHT22;9888;48.606;9.630;2022-10-22T10:32:54;22.60;99.90
19496;DHT22;9888;48.606;9.630;2022-10-22T10:35:39;22.20;99.90
19496;DHT22;9888;48.606;9.630;2022-10-22T10:46:41;21.40;99.90
19496;DHT22;9888;48.606;9.630;2022-10-22T10:49:19;21.20;99.90
19496;DHT22;9888;48.606;9.630;2022-10-22T10:55:29;20.70;99.90
19496;DHT22;9888;48.606;9.630;2022-10-22T11:00:56;21.40;99.90
19496;DHT22;9888;48.606;9.630;2022-10-22T11:06:19;20.70;99.90
19496;DHT22;9888;48.606;9.630;2022-10-22T11:09:01;21.10;99.90
19496;DHT22;9888;48.606;9.630;2022-10-22T11:11:41;21.20;99.90
19496;DHT22;9888;48.606;9.630;2022-10-22T11:16:52;23.70;99.90
19496;DHT22;9888;48.606;9.630;2022-10-22T11:19:31;23.50;99.90
19496;DHT22;9888;48.606;9.630;2022-10-22T11:22:21;23.40;99.90
19496;DHT22;9888;48.606;9.630;2022-10-22T11:24:59;24.00;99.90
19496;DHT22;9888;48.606;9.630;2022-10-22T11:27:38;24.00;99.90
19496;DHT22;9888;48.606;9.630;2022-10-22T11:30:22;25.70;99.90
19496;DHT22;9888;48.606;9.630;2022-10-22T11:32:56;27.00;99.90
19496;DHT22;9888;48.606;9.630;2022-10-22T11:35:34;24.90;99.90
19496;DHT22;9888;48.606;9.630;2022-10-22T11:38:05;23.00;99.90
19496;DHT22;9888;48.606;9.630;2022-10-22T11:40:36;24.20;99.90
19496;DHT22;9888;48.606;9.630;2022-10-22T11:43:09;23.70;99.90
19496;DHT22;9888;48.606;9.630;2022-10-22T11:45:42;24.20;99.90
19496;DHT22;9888;48.606;9.630;2022-10-22T11:50:56;24.40;99.90
19496;DHT22;9888;48.606;9.630;2022-10-22T11:55:57;27.60;99.90
19496;DHT22;9888;48.606;9.630;2022-10-22T11:58:44;28.60;99.90
19496;DHT22;9888;48.606;9.630;2022-10-22T12:01:17;28.20;99.90
19496;DHT22;9888;48.606;9.630;2022-10-22T12:09:01;31.50;99.90
19496;DHT22;9888;48.606;9.630;2022-10-22T12:11:35;31.50;99.90
19496;DHT22;9888;48.606;9.630;2022-10-22T12:14:22;30.60;99.90
19496;DHT22;9888;48.606;9.630;2022-10-22T12:20:17;28.10;99.90
19496;DHT22;9888;48.606;9.630;2022-10-22T12:22:46;28.50;99.90
19496;DHT22;9888;48.606;9.630;2022-10-22T12:25:21;29.10;99.90
19496;DHT22;9888;48.606;9.630;2022-10-22T12:27:56;30.20;99.90
19496;DHT22;9888;48.606;9.630;2022-10-22T12:30:27;30.30;99.90
19496;DHT22;9888;48.606;9.630;2022-10-22T12:33:04;30.70;99.10
19496;DHT22;9888;48.606;9.630;2022-10-22T12:35:45;27.80;99.90
19496;DHT22;9888;48.606;9.630;2022-10-22T12:38:17;28.40;99.90
19496;DHT22;9888;48.606;9.630;2022-10-22T12:40:46;28.20;99.90
19496;DHT22;9888;48.606;9.630;2022-10-22T12:43:22;29.50;99.90
19496;DHT22;9888;48.606;9.630;2022-10-22T12:45:54;30.60;99.30
19496;DHT22;9888;48.606;9.630;2022-10-22T12:48:26;29.10;99.90
19496;DHT22;9888;48.606;9.630;2022-10-22T12:51:00;31.00;99.90
19496;DHT22;9888;48.606;9.630;2022-10-22T12:53:42;31.00;98.90
19496;DHT22;9888;48.606;9.630;2022-10-22T12:56:26;31.80;99.90
19496;DHT22;9888;48.606;9.630;2022-10-22T12:59:23;32.40;96.90
19496;DHT22;9888;48.606;9.630;2022-10-22T13:01:50;32.90;97.50
19496;DHT22;9888;48.606;9.630;2022-10-22T13:04:31;32.60;94.20
19496;DHT22;9888;48.606;9.630;2022-10-22T13:09:40;32.60;94.10
19496;DHT22;9888;48.606;9.630;2022-10-22T13:12:11;31.70;95.20
19496;DHT22;9888;48.606;9.630;2022-10-22T13:14:46;31.50;95.60
19496;DHT22;9888;48.606;9.630;2022-10-22T13:17:17;33.00;94.10
19496;DHT22;9888;48.606;9.630;2022-10-22T13:23:21;32.70;92.60
19496;DHT22;9888;48.606;9.630;2022-10-22T13:26:15;31.80;91.90
19496;DHT22;9888;48.606;9.630;2022-10-22T13:28:54;29.50;92.00
19496;DHT22;9888;48.606;9.630;2022-10-22T13:31:29;28.00;95.00
19496;DHT22;9888;48.606;9.630;2022-10-22T13:34:05;29.40;94.60
19496;DHT22;9888;48.606;9.630;2022-10-22T13:36:37;30.80;94.80
19496;DHT22;9888;48.606;9.630;2022-10-22T13:39:15;31.90;93.90
19496;DHT22;9888;48.606;9.630;2022-10-22T13:41:55;32.50;93.40
19496;DHT22;9888;48.606;9.630;2022-10-22T13:44:25;33.20;92.40
19496;DHT22;9888;48.606;9.630;2022-10-22T13:46:53;34.80;89.40
19496;DHT22;9888;48.606;9.630;2022-10-22T13:49:26;34.60;88.10
19496;DHT22;9888;48.606;9.630;2022-10-22T13:51:56;34.30;86.40
19496;DHT22;9888;48.606;9.630;2022-10-22T13:54:24;33.70;89.30
19496;DHT22;9888;48.606;9.630;2022-10-22T13:56:51;32.90;83.20
19496;DHT22;9888;48.606;9.630;2022-10-22T13:59:19;32.80;89.30
19496;DHT22;9888;48.606;9.630;2022-10-22T14:01:46;32.50;85.00
19496;DHT22;9888;48.606;9.630;2022-10-22T14:04:17;31.00;87.60
19496;DHT22;9888;48.606;9.630;2022-10-22T14:06:48;29.60;89.40
19496;DHT22;9888;48.606;9.630;2022-10-22T14:09:22;28.20;93.00
19496;DHT22;9888;48.606;9.630;2022-10-22T14:11:49;27.90;94.00
19496;DHT22;9888;48.606;9.630;2022-10-22T14:14:16;27.30;95.00
19496;DHT22;9888;48.606;9.630;2022-10-22T14:16:44;26.80;95.30
19496;DHT22;9888;48.606;9.630;2022-10-22T14:19:17;26.30;94.40
19496;DHT22;9888;48.606;9.630;2022-10-22T14:21:44;26.00;97.20
19496;DHT22;9888;48.606;9.630;2022-10-22T14:24:13;25.40;97.40
19496;DHT22;9888;48.606;9.630;2022-10-22T14:26:42;25.80;98.30
19496;DHT22;9888;48.606;9.630;2022-10-22T14:29:09;26.00;99.20
19496;DHT22;9888;48.606;9.630;2022-10-22T14:31:40;26.30;98.20
19496;DHT22;9888;48.606;9.630;2022-10-22T14:34:14;27.20;97.50
19496;DHT22;9888;48.606;9.630;2022-10-22T14:36:41;28.20;97.00
19496;DHT22;9888;48.606;9.630;2022-10-22T14:39:13;28.90;96.70
19496;DHT22;9888;48.606;9.630;2022-10-22T14:41:41;29.70;95.30
19496;DHT22;9888;48.606;9.630;2022-10-22T14:44:11;30.30;95.50
19496;DHT22;9888;48.606;9.630;2022-10-22T14:46:41;30.00;95.50
19496;DHT22;9888;48.606;9.630;2022-10-22T14:49:09;29.60;95.50
19496;DHT22;9888;48.606;9.630;2022-10-22T14:51:36;30.00;94.90
19496;DHT22;9888;48.606;9.630;2022-10-22T14:54:05;29.60;95.80
19496;DHT22;9888;48.606;9.630;2022-10-22T14:56:34;30.00;95.30
19496;DHT22;9888;48.606;9.630;2022-10-22T14:59:05;30.20;94.50
19496;DHT22;9888;48.606;9.630;2022-10-22T15:01:33;30.40;94.40
19496;DHT22;9888;48.606;9.630;2022-10-22T15:04:01;30.40;94.10
19496;DHT22;9888;48.606;9.630;2022-10-22T15:06:28;30.20;94.40
19496;DHT22;9888;48.606;9.630;2022-10-22T15:08:55;29.70;94.50
19496;DHT22;9888;48.606;9.630;2022-10-22T15:11:27;28.60;95.20
19496;DHT22;9888;48.606;9.630;2022-10-22T15:13:55;27.00;95.70
19496;DHT22;9888;48.606;9.630;2022-10-22T15:16:22;25.60;97.10
19496;DHT22;9888;48.606;9.630;2022-10-22T15:18:50;24.20;99.00
19496;DHT22;9888;48.606;9.630;2022-10-22T15:21:20;22.80;99.90
19496;DHT22;9888;48.606;9.630;2022-10-22T15:23:48;21.70;99.90
19496;DHT22;9888;48.606;9.630;2022-10-22T15:26:17;20.30;99.90
19496;DHT22;9888;48.606;9.630;2022-10-22T15:28:45;19.40;99.90
19496;DHT22;9888;48.606;9.630;2022-10-22T15:31:13;18.70;99.90
19496;DHT22;9888;48.606;9.630;2022-10-22T15:33:42;18.00;99.90
19496;DHT22;9888;48.606;9.630;2022-10-22T15:36:14;17.00;99.90
19496;DHT22;9888;48.606;9.630;2022-10-22T15:38:42;16.20;99.90
19496;DHT22;9888;48.606;9.630;2022-10-22T15:41:12;15.80;99.90
19496;DHT22;9888;48.606;9.630;2022-10-22T15:43:42;15.30;99.90
19496;DHT22;9888;48.606;9.630;2022-10-22T15:46:16;14.90;99.90
19496;DHT22;9888;48.606;9.630;2022-10-22T15:48:44;14.50;99.90
19496;DHT22;9888;48.606;9.630;2022-10-22T15:51:17;14.20;99.90
19496;DHT22;9888;48.606;9.630;2022-10-22T15:53:57;14.00;99.90
19496;DHT22;9888;48.606;9.630;2022-10-22T15:56:28;13.90;99.90
19496;DHT22;9888;48.606;9.630;2022-10-22T15:59:01;13.70;99.90
19496;DHT22;9888;48.606;9.630;2022-10-22T16:01:30;13.50;99.90
19496;DHT22;9888;48.606;9.630;2022-10-22T16:04:02;13.30;99.90
19496;DHT22;9888;48.606;9.630;2022-10-22T16:06:35;13.10;99.90
19496;DHT22;9888;48.606;9.630;2022-10-22T16:09:05;12.80;99.90
19496;DHT22;9888;48.606;9.630;2022-10-22T16:11:33;12.60;99.90
19496;DHT22;9888;48.606;9.630;2022-10-22T16:14:01;12.40;99.90
19496;DHT22;9888;48.606;9.630;2022-10-22T16:16:30;12.30;99.90
19496;DHT22;9888;48.606;9.630;2022-10-22T16:18:58;12.10;99.90
19496;DHT22;9888;48.606;9.630;2022-10-22T16:21:27;12.00;99.90
19496;DHT22;9888;48.606;9.630;2022-10-22T16:23:54;11.90;99.90
19496;DHT22;9888;48.606;9.630;2022-10-22T16:26:23;11.80;99.90
19496;DHT22;9888;48.606;9.630;2022-10-22T16:28:53;11.70;99.90
19496;DHT22;9888;48.606;9.630;2022-10-22T16:31:20;11.50;99.90
19496;DHT22;9888;48.606;9.630;2022-10-22T16:33:47;11.40;99.90
19496;DHT22;9888;48.606;9.630;2022-10-22T16:36:17;11.40;99.90
19496;DHT22;9888;48.606;9.630;2022-10-22T16:38:46;11.30;99.90
19496;DHT22;9888;48.606;9.630;2022-10-22T16:41:14;11.20;99.90
19496;DHT22;9888;48.606;9.630;2022-10-22T16:43:46;11.10;99.90
19496;DHT22;9888;48.606;9.630;2022-10-22T16:46:18;11.00;99.90
19496;DHT22;9888;48.606;9.630;2022-10-22T16:48:52;11.00;99.90
19496;DHT22;9888;48.606;9.630;2022-10-22T16:51:21;10.80;99.90
19496;DHT22;9888;48.606;9.630;2022-10-22T16:53:50;10.70;99.90
19496;DHT22;9888;48.606;9.630;2022-10-22T16:56:21;10.70;99.90
19496;DHT22;9888;48.606;9.630;2022-10-22T16:58:51;10.60;99.90
19496;DHT22;9888;48.606;9.630;2022-10-22T17:01:20;10.50;99.90
19496;DHT22;9888;48.606;9.630;2022-10-22T17:03:48;10.40;99.90
19496;DHT22;9888;48.606;9.630;2022-10-22T17:06:15;10.30;99.90
19496;DHT22;9888;48.606;9.630;2022-10-22T17:08:43;10.20;99.90
19496;DHT22;9888;48.606;9.630;2022-10-22T17:11:18;10.10;99.90
19496;DHT22;9888;48.606;9.630;2022-10-22T17:13:46;10.10;99.90
19496;DHT22;9888;48.606;9.630;2022-10-22T17:16:21;10.10;99.90
19496;DHT22;9888;48.606;9.630;2022-10-22T17:18:57;10.00;99.90
19496;DHT22;9888;48.606;9.630;2022-10-22T17:21:24;10.00;99.90
19496;DHT22;9888;48.606;9.630;2022-10-22T17:23:56;9.90;99.90
19496;DHT22;9888;48.606;9.630;2022-10-22T17:26:24;9.90;99.90
19496;DHT22;9888;48.606;9.630;2022-10-22T17:28:53;9.90;99.90
19496;DHT22;9888;48.606;9.630;2022-10-22T17:31:29;9.80;99.90
19496;DHT22;9888;48.606;9.630;2022-10-22T17:34:09;9.70;99.90
19496;DHT22;9888;48.606;9.630;2022-10-22T17:36:37;9.70;99.90
19496;DHT22;9888;48.606;9.630;2022-10-22T17:39:06;9.60;99.90
19496;DHT22;9888;48.606;9.630;2022-10-22T17:41:37;9.60;99.90
19496;DHT22;9888;48.606;9.630;2022-10-22T17:44:05;9.50;99.90
19496;DHT22;9888;48.606;9.630;2022-10-22T17:46:34;9.40;99.90
19496;DHT22;9888;48.606;9.630;2022-10-22T17:49:08;9.40;99.90
19496;DHT22;9888;48.606;9.630;2022-10-22T17:51:39;9.40;99.90
19496;DHT22;9888;48.606;9.630;2022-10-22T17:54:07;9.30;99.90
19496;DHT22;9888;48.606;9.630;2022-10-22T17:56:34;9.30;99.90
19496;DHT22;9888;48.606;9.630;2022-10-22T17:59:03;9.30;99.90